createdAt,value
2022-11-28T00:01:52.181Z,8.02
2022-11-28T00:04:57.313Z,8.06
2022-11-28T00:08:01.174Z,7.95
2022-11-28T00:11:05.885Z,8.03
2022-11-28T00:14:10.105Z,8.06
2022-11-28T00:17:13.858Z,7.46
2022-11-28T00:20:18.830Z,7.59
2022-11-28T00:23:22.532Z,7.48
2022-11-28T00:26:28.322Z,7.22
2022-11-28T00:29:32.044Z,7.32
2022-11-28T00:32:35.827Z,7.57
2022-11-28T00:35:40.837Z,7.67
2022-11-28T00:38:44.470Z,7.47
2022-11-28T00:41:48.241Z,7.68
2022-11-28T00:44:51.613Z,7.67
2022-11-28T00:47:55.304Z,7.79
2022-11-28T00:51:07.775Z,7.57
2022-11-28T00:54:11.943Z,7.62
2022-11-28T00:57:15.327Z,7.55
2022-11-28T01:00:19.731Z,7.27
2022-11-28T01:03:23.183Z,7.39
2022-11-28T01:06:30.360Z,7.42
2022-11-28T01:09:33.743Z,7.47
2022-11-28T01:12:37.453Z,7.56
2022-11-28T01:15:42.777Z,7.49
2022-11-28T01:18:46.649Z,7.52
2022-11-28T01:21:51.587Z,7.63
2022-11-28T01:24:55.361Z,7.57
2022-11-28T01:27:58.792Z,7.69
2022-11-28T01:31:06.154Z,7.77
2022-11-28T01:34:09.785Z,7.73
2022-11-28T01:37:14.825Z,7.64
2022-11-28T01:40:18.297Z,7.51
2022-11-28T01:43:22.788Z,7.73
2022-11-28T01:46:26.289Z,7.57
2022-11-28T01:49:35.471Z,7.77
2022-11-28T01:52:44.449Z,7.79
2022-11-28T01:55:53.939Z,7.61
2022-11-28T01:59:03.617Z,7.82
2022-11-28T02:02:14.435Z,7.78
2022-11-28T02:05:20.187Z,7.93
2022-11-28T02:08:25.879Z,7.92
2022-11-28T02:11:58.048Z,7.94
2022-11-28T02:15:17.476Z,7.96
2022-11-28T02:18:35.193Z,7.95
2022-11-28T02:22:01.331Z,7.95
2022-11-28T02:25:31.321Z,7.96
2022-11-28T02:29:19.517Z,7.75
2022-11-28T02:32:37.010Z,7.62
2022-11-28T02:35:54.225Z,7.79
2022-11-28T02:39:09.914Z,7.77
2022-11-28T02:42:20.046Z,7.70
2022-11-28T02:45:32.929Z,7.67
2022-11-28T02:48:59.861Z,7.78
2022-11-28T02:52:08.202Z,7.67
2022-11-28T02:55:13.603Z,7.63
2022-11-28T02:58:18.658Z,7.76
2022-11-28T03:01:25.670Z,7.72
2022-11-28T03:04:36.182Z,7.24
2022-11-28T03:08:04.530Z,7.50
2022-11-28T03:11:16.812Z,7.63
2022-11-28T03:14:29.529Z,7.69
2022-11-28T03:17:41.700Z,7.84
2022-11-28T03:20:51.500Z,7.84
2022-11-28T03:24:00.988Z,7.77
2022-11-28T03:27:11.106Z,7.91
2022-11-28T03:30:19.711Z,7.94
2022-11-28T03:33:26.599Z,7.74
2022-11-28T03:36:36.460Z,7.76
2022-11-28T03:39:46.454Z,7.84
2022-11-28T03:42:55.126Z,7.71
2022-11-28T03:46:05.574Z,7.74
2022-11-28T03:49:11.444Z,7.90
2022-11-28T03:52:22.874Z,7.95
2022-11-28T03:55:32.115Z,8.04
2022-11-28T03:58:39.373Z,8.07
2022-11-28T04:01:52.492Z,8.07
2022-11-28T04:05:03.879Z,8.01
2022-11-28T04:08:15.729Z,7.92
2022-11-28T04:11:24.137Z,7.97
2022-11-28T04:14:35.445Z,8.06
2022-11-28T04:17:47.054Z,8.06
2022-11-28T04:20:54.343Z,8.01
2022-11-28T04:24:04.862Z,8.02
2022-11-28T04:27:12.232Z,7.79
2022-11-28T04:30:16.924Z,7.75
2022-11-28T04:33:23.464Z,7.89
2022-11-28T04:36:30.106Z,7.96
2022-11-28T04:39:37.619Z,8.06
2022-11-28T04:42:51.308Z,8.10
2022-11-28T04:46:00.936Z,8.15
2022-11-28T04:49:04.694Z,8.10
2022-11-28T04:52:13.113Z,8.12
2022-11-28T04:55:35.179Z,8.06
2022-11-28T04:58:43.079Z,8.20
2022-11-28T05:01:49.318Z,7.93
2022-11-28T05:04:55.721Z,7.98
2022-11-28T05:08:00.202Z,8.04
2022-11-28T05:11:23.673Z,7.81
2022-11-28T05:14:27.816Z,7.78
2022-11-28T05:17:31.307Z,7.66
2022-11-28T05:20:35.673Z,7.84
2022-11-28T05:23:39.055Z,7.54
2022-11-28T05:26:44.391Z,7.57
2022-11-28T05:29:52.056Z,7.38
2022-11-28T05:32:56.344Z,7.37
2022-11-28T05:36:08.518Z,7.55
2022-11-28T05:39:15.202Z,7.65
2022-11-28T05:42:20.083Z,7.72
2022-11-28T05:45:23.830Z,7.69
2022-11-28T05:48:27.396Z,7.52
2022-11-28T05:51:31.199Z,7.55
2022-11-28T05:54:34.580Z,7.37
2022-11-28T05:57:39.651Z,6.97
2022-11-28T06:00:43.063Z,7.06
2022-11-28T06:03:47.595Z,6.48
2022-11-28T06:06:51.987Z,6.77
2022-11-28T06:09:55.747Z,6.05
2022-11-28T06:13:00.815Z,6.12
2022-11-28T06:16:07.746Z,6.36
2022-11-28T06:19:13.904Z,6.30
2022-11-28T06:22:17.711Z,6.45
2022-11-28T06:25:21.075Z,6.44
2022-11-28T06:28:26.134Z,6.40
2022-11-28T06:31:31.104Z,6.39
2022-11-28T06:34:35.068Z,6.50
2022-11-28T06:37:38.431Z,6.41
2022-11-28T06:40:42.850Z,6.50
2022-11-28T06:43:47.991Z,6.65
2022-11-28T06:46:51.762Z,6.45
2022-11-28T06:49:55.148Z,6.69
2022-11-28T06:52:58.866Z,6.94
2022-11-28T06:56:06.898Z,6.69
2022-11-28T06:59:13.817Z,6.86
2022-11-28T07:02:17.623Z,6.82
2022-11-28T07:05:22.941Z,6.93
2022-11-28T07:08:26.390Z,6.80
2022-11-28T07:11:32.342Z,7.06
2022-11-28T07:14:40.452Z,7.20
2022-11-28T07:17:44.154Z,6.89
2022-11-28T07:20:47.686Z,7.12
2022-11-28T07:23:52.387Z,7.09
2022-11-28T07:26:56.537Z,7.00
2022-11-28T07:30:01.741Z,6.79
2022-11-28T07:33:05.415Z,7.14
2022-11-28T07:36:12.553Z,7.10
2022-11-28T07:39:17.598Z,7.20
2022-11-28T07:42:21.207Z,7.27
2022-11-28T07:45:59.367Z,7.26
2022-11-28T07:49:04.455Z,7.00
2022-11-28T07:52:07.965Z,6.88
2022-11-28T07:55:11.847Z,6.97
2022-11-28T07:58:16.572Z,7.00
2022-11-28T08:01:26.481Z,6.90
2022-11-28T08:04:29.939Z,6.93
2022-11-28T08:07:33.731Z,6.76
2022-11-28T08:10:37.153Z,6.83
2022-11-28T08:13:41.724Z,7.12
2022-11-28T08:16:46.602Z,7.12
2022-11-28T08:19:50.379Z,7.06
2022-11-28T08:22:53.868Z,7.26
2022-11-28T08:25:57.952Z,7.14
2022-11-28T08:29:03.033Z,7.23
2022-11-28T08:32:08.154Z,7.35
2022-11-28T08:35:11.769Z,7.23
2022-11-28T08:38:15.497Z,7.20
2022-11-28T08:41:22.719Z,7.21
2022-11-28T08:44:27.451Z,7.26
2022-11-28T08:47:32.338Z,7.35
2022-11-28T08:50:36.263Z,7.50
2022-11-28T08:53:39.573Z,7.36
2022-11-28T08:56:45.275Z,7.32
2022-11-28T08:59:48.636Z,7.54
2022-11-28T09:02:53.830Z,7.58
2022-11-28T09:06:02.846Z,7.41
2022-11-28T09:09:06.788Z,7.44
2022-11-28T09:12:10.142Z,7.73
2022-11-28T09:15:13.842Z,7.73
2022-11-28T09:18:19.143Z,7.84
2022-11-28T09:21:22.957Z,7.77
2022-11-28T09:24:26.449Z,7.65
2022-11-28T09:27:30.241Z,7.69
2022-11-28T09:30:34.431Z,7.63
2022-11-28T09:33:40.620Z,7.82
2022-11-28T09:36:44.138Z,7.71
2022-11-28T09:40:11.469Z,7.69
2022-11-28T09:43:17.771Z,7.48
2022-11-28T09:46:28.437Z,7.49
2022-11-28T09:49:41.076Z,7.80
2022-11-28T09:52:53.118Z,8.09
2022-11-28T09:56:01.212Z,8.19
2022-11-28T09:59:07.560Z,8.27
2022-11-28T10:02:28.226Z,8.25
2022-11-28T10:05:41.473Z,7.92
2022-11-28T10:09:06.755Z,8.12
2022-11-28T10:12:27.979Z,8.23
2022-11-28T10:15:46.926Z,8.02
2022-11-28T10:18:56.353Z,8.14
2022-11-28T10:22:06.356Z,8.07
2022-11-28T10:25:19.027Z,8.09
2022-11-28T10:28:27.691Z,8.42
2022-11-28T10:31:36.359Z,8.54
2022-11-28T10:34:46.329Z,8.41
2022-11-28T10:37:53.300Z,8.25
2022-11-28T10:41:01.871Z,7.97
2022-11-28T10:44:19.982Z,8.01
2022-11-28T10:47:45.619Z,7.86
2022-11-28T10:51:00.507Z,8.00
2022-11-28T10:54:20.922Z,7.66
2022-11-28T10:57:30.379Z,7.54
2022-11-28T11:00:35.989Z,7.54
2022-11-28T11:03:41.581Z,7.49
2022-11-28T11:07:07.168Z,7.25
2022-11-28T11:10:17.531Z,7.22
2022-11-28T11:13:23.680Z,6.51
2022-11-28T11:16:47.067Z,6.69
2022-11-28T11:19:50.539Z,6.68
2022-11-28T11:22:56.967Z,6.69
2022-11-28T11:26:02.453Z,6.44
2022-11-28T11:29:06.602Z,5.98
2022-11-28T11:32:21.832Z,6.16
2022-11-28T11:35:29.022Z,6.48
2022-11-28T11:38:38.092Z,6.57
2022-11-28T11:41:45.093Z,6.76
2022-11-28T11:44:48.540Z,7.04
2022-11-28T11:47:52.264Z,6.56
2022-11-28T11:50:55.967Z,6.93
2022-11-28T11:54:04.636Z,6.94
2022-11-28T12:00:41.127Z,7.14
2022-11-28T12:03:54.458Z,7.29
2022-11-28T12:07:03.172Z,6.97
2022-11-28T12:10:12.844Z,7.32
2022-11-28T12:13:22.441Z,6.47
2022-11-28T12:16:42.694Z,6.66
2022-11-28T12:19:57.753Z,6.49
2022-11-28T12:26:45.519Z,6.43
2022-11-28T12:30:04.855Z,6.58
2022-11-28T12:33:31.881Z,6.68
2022-11-28T12:36:42.603Z,6.77
2022-11-28T12:40:01.870Z,7.05
2022-11-28T12:43:23.886Z,7.02
2022-11-28T12:46:41.490Z,6.95
2022-11-28T12:49:57.287Z,6.64
2022-11-28T12:53:23.852Z,6.79
2022-11-28T12:56:38.726Z,7.00
2022-11-28T12:59:51.904Z,6.75
2022-11-28T13:03:10.044Z,6.78
2022-11-28T13:06:28.440Z,6.74
2022-11-28T13:09:35.412Z,6.43
2022-11-28T13:12:50.145Z,6.40
2022-11-28T13:16:03.906Z,6.50
2022-11-28T13:19:28.702Z,6.38
2022-11-28T13:22:44.230Z,6.12
2022-11-28T13:25:54.442Z,6.10
2022-11-28T13:29:06.439Z,6.04
2022-11-28T13:32:18.665Z,5.99
2022-11-28T13:35:24.707Z,6.18
2022-11-28T13:38:41.692Z,5.98
2022-11-28T13:42:28.370Z,5.99
2022-11-28T13:45:32.456Z,6.05
2022-11-28T13:52:35.154Z,6.21
2022-11-28T13:55:45.276Z,6.35
2022-11-28T13:58:54.246Z,6.21
2022-11-28T14:02:01.328Z,6.57
2022-11-28T14:05:23.141Z,6.48
2022-11-28T14:08:35.561Z,6.79
2022-11-28T14:11:52.926Z,6.99
2022-11-28T14:15:15.169Z,7.07
2022-11-28T14:22:15.210Z,7.32
2022-11-28T14:25:25.588Z,7.40
2022-11-28T14:28:33.250Z,7.59
2022-11-28T14:31:39.752Z,7.50
2022-11-28T14:34:47.145Z,7.53
2022-11-28T14:37:53.011Z,7.67
2022-11-28T14:41:09.192Z,7.69
2022-11-28T14:44:46.327Z,7.96
2022-11-28T14:48:08.090Z,7.74
2022-11-28T14:51:11.914Z,7.69
2022-11-28T14:54:23.640Z,7.72
2022-11-28T14:57:32.652Z,7.85
2022-11-28T15:00:47.385Z,7.70
2022-11-28T15:04:00.180Z,7.72
2022-11-28T15:07:05.175Z,7.72
2022-11-28T15:10:15.966Z,7.79
2022-11-28T15:13:34.171Z,7.55
2022-11-28T15:16:48.232Z,7.64
2022-11-28T15:19:59.037Z,7.50
2022-11-28T15:23:02.982Z,7.69
2022-11-28T15:26:07.039Z,7.17
2022-11-28T15:29:20.309Z,6.46
2022-11-28T15:32:26.288Z,6.54
2022-11-28T15:35:30.506Z,6.26
2022-11-28T15:38:38.022Z,6.08
2022-11-28T15:41:46.741Z,6.22
2022-11-28T15:44:57.900Z,5.92
2022-11-28T15:48:01.802Z,6.20
2022-11-28T15:51:07.815Z,6.10
2022-11-28T15:54:32.025Z,6.12
2022-11-28T15:57:35.581Z,5.91
2022-11-28T16:00:44.095Z,5.92
2022-11-28T16:03:56.098Z,5.80
2022-11-28T16:07:02.601Z,5.77
2022-11-28T16:10:09.131Z,5.69
2022-11-28T16:13:17.200Z,5.94
2022-11-28T16:16:26.771Z,5.79
2022-11-28T16:19:33.597Z,5.73
2022-11-28T16:22:38.249Z,5.49
2022-11-28T16:25:41.960Z,5.43
2022-11-28T16:28:59.697Z,5.30
2022-11-28T16:32:23.004Z,5.50
2022-11-28T16:35:28.736Z,5.10
2022-11-28T16:38:33.107Z,5.36
2022-11-28T16:41:36.944Z,5.29
2022-11-28T16:44:40.930Z,5.16
2022-11-28T16:47:46.798Z,4.84
2022-11-28T16:51:32.054Z,4.98
2022-11-28T16:54:35.443Z,5.23
2022-11-28T16:57:47.523Z,5.30
2022-11-28T17:01:03.429Z,5.49
2022-11-28T17:04:21.940Z,5.25
2022-11-28T17:07:25.671Z,5.55
2022-11-28T17:10:29.557Z,5.61
2022-11-28T17:13:32.930Z,5.71
2022-11-28T17:16:38.449Z,5.81
2022-11-28T17:19:44.248Z,5.81
2022-11-28T17:22:51.141Z,6.01
2022-11-28T17:25:54.547Z,5.94
2022-11-28T17:28:59.032Z,5.92
2022-11-28T17:32:03.131Z,5.99
2022-11-28T17:35:15.118Z,5.86
2022-11-28T17:38:20.240Z,5.99
2022-11-28T17:41:25.700Z,6.14
2022-11-28T17:44:32.189Z,6.33
2022-11-28T17:47:36.831Z,6.28
2022-11-28T17:50:42.002Z,6.10
2022-11-28T17:53:48.832Z,6.09
2022-11-28T17:56:54.261Z,5.62
2022-11-28T17:59:58.627Z,5.50
2022-11-28T18:03:02.158Z,5.52
2022-11-28T18:06:08.235Z,5.55
2022-11-28T18:09:12.550Z,5.70
2022-11-28T18:12:16.632Z,5.82
2022-11-28T18:15:20.084Z,5.68
2022-11-28T18:18:25.575Z,5.76
2022-11-28T18:21:30.776Z,5.80
2022-11-28T18:24:34.783Z,5.92
2022-11-28T18:27:38.779Z,5.83
2022-11-28T18:30:43.488Z,5.74
2022-11-28T18:33:47.203Z,5.84
2022-11-28T18:36:58.491Z,5.89
2022-11-28T18:40:09.328Z,6.06
2022-11-28T18:43:14.527Z,5.98
2022-11-28T18:46:19.967Z,5.97
2022-11-28T18:49:25.245Z,5.69
2022-11-28T18:52:30.272Z,5.72
2022-11-28T18:55:34.380Z,5.81
2022-11-28T18:58:40.093Z,5.87
2022-11-28T19:01:44.757Z,5.85
2022-11-28T19:04:48.205Z,6.09
2022-11-28T19:07:53.492Z,6.01
2022-11-28T19:10:56.986Z,6.27
2022-11-28T19:14:00.748Z,6.19
2022-11-28T19:17:05.197Z,6.40
2022-11-28T19:20:11.049Z,6.24
2022-11-28T19:23:16.031Z,6.41
2022-11-28T19:26:22.908Z,6.43
2022-11-28T19:29:26.475Z,6.74
2022-11-28T19:32:30.351Z,6.79
2022-11-28T19:35:34.587Z,6.72
2022-11-28T19:38:40.242Z,6.46
2022-11-28T19:41:44.182Z,6.61
2022-11-28T19:44:49.512Z,6.31
2022-11-28T19:47:53.573Z,6.44
2022-11-28T19:50:58.455Z,6.44
2022-11-28T19:54:04.207Z,6.42
2022-11-28T19:57:11.426Z,6.63
2022-11-28T20:00:16.341Z,6.47
2022-11-28T20:03:23.989Z,6.52
2022-11-28T20:06:28.993Z,6.43
2022-11-28T20:09:35.520Z,6.42
2022-11-28T20:12:39.741Z,6.47
2022-11-28T20:15:44.234Z,6.36
2022-11-28T20:18:47.835Z,6.29
2022-11-28T20:21:51.697Z,6.17
2022-11-28T20:24:57.878Z,6.08
2022-11-28T20:28:02.245Z,6.03
2022-11-28T20:31:06.501Z,6.07
2022-11-28T20:34:10.675Z,6.00
2022-11-28T20:37:14.514Z,5.97
2022-11-28T20:40:19.786Z,5.75
2022-11-28T20:43:23.199Z,5.60
2022-11-28T20:46:30.305Z,5.75
2022-11-28T20:49:33.938Z,5.50
2022-11-28T20:52:37.876Z,5.72
2022-11-28T20:55:42.684Z,5.65
2022-11-28T20:58:46.827Z,5.44
2022-11-28T21:01:50.373Z,5.28
2022-11-28T21:04:54.340Z,5.46
2022-11-28T21:07:58.041Z,5.49
2022-11-28T21:11:07.591Z,5.55
2022-11-28T21:14:11.983Z,5.56
2022-11-28T21:17:15.635Z,5.60
2022-11-28T21:20:19.258Z,5.49
2022-11-28T21:23:23.066Z,5.35
2022-11-28T21:26:30.581Z,5.27
2022-11-28T21:29:34.469Z,5.24
2022-11-28T21:32:38.215Z,5.27
2022-11-28T21:35:42.076Z,5.35
2022-11-28T21:38:50.174Z,5.32
2022-11-28T21:41:55.505Z,5.20
2022-11-28T21:44:58.879Z,5.24
2022-11-28T21:48:02.730Z,5.20
2022-11-28T21:51:06.949Z,5.14
2022-11-28T21:54:11.761Z,5.09
2022-11-28T21:57:16.503Z,5.04
2022-11-28T22:00:51.716Z,5.08
2022-11-28T22:03:44.943Z,5.00
2022-11-28T22:06:49.308Z,4.96
2022-11-28T22:09:52.773Z,4.95
2022-11-28T22:12:59.282Z,5.07
2022-11-28T22:16:03.160Z,4.90
2022-11-28T22:19:07.086Z,5.04
2022-11-28T22:22:10.491Z,5.04
2022-11-28T22:25:16.598Z,5.12
2022-11-28T22:28:22.051Z,5.15
2022-11-28T22:31:25.871Z,5.25
2022-11-28T22:34:29.394Z,5.43
2022-11-28T22:37:33.064Z,5.44
2022-11-28T22:40:38.097Z,5.60
2022-11-28T22:43:43.980Z,5.45
2022-11-28T22:46:47.513Z,5.29
2022-11-28T22:49:51.382Z,5.26
2022-11-28T22:52:54.973Z,5.37
2022-11-28T22:56:03.821Z,5.32
2022-11-28T22:59:12.793Z,5.17
2022-11-28T23:02:16.770Z,5.33
2022-11-28T23:05:20.404Z,5.37
2022-11-28T23:08:25.130Z,5.50
2022-11-28T23:11:32.698Z,5.47
2022-11-28T23:14:38.025Z,5.56
2022-11-28T23:17:41.571Z,5.49
2022-11-28T23:20:45.285Z,5.19
2022-11-28T23:23:49.862Z,5.26
2022-11-28T23:26:53.794Z,5.41
2022-11-28T23:29:58.527Z,5.49
2022-11-28T23:33:02.247Z,5.48
2022-11-28T23:36:14.805Z,5.53
2022-11-28T23:39:20.569Z,5.57
2022-11-28T23:42:23.967Z,5.58
2022-11-28T23:45:29.567Z,5.35
2022-11-28T23:48:33.115Z,5.25
2022-11-28T23:51:37.163Z,5.40
2022-11-28T23:54:40.600Z,5.06
2022-11-28T23:57:44.346Z,5.04
